Time,TemperatureF,DewpointF,PressureIn,WindDirection,WindDirectionDegrees,WindSpeedMPH,WindSpeedGustMPH,Humidity,HourlyPrecipIn,Conditions,Clouds,dailyrainin,SoftwareType,DateUTC
2013-09-19 00:01:00,62.4,51.3,29.85,ESE,112,0.0,4.7,67,0.00,,,0.02,open2300-1.11,2013-09-19 06:01:00,
2013-09-19 00:11:00,62.2,51.5,29.85,SE,135,0.0,2.2,68,0.00,,,0.02,open2300-1.11,2013-09-19 06:11:00,
2013-09-19 00:21:00,61.9,51.6,29.85,SE,135,2.7,2.7,69,0.00,,,0.02,open2300-1.11,2013-09-19 06:21:00,
2013-09-19 00:31:00,61.7,51.5,29.84,SSE,157,0.0,4.0,69,0.00,,,0.02,open2300-1.11,2013-09-19 06:31:00,
2013-09-19 00:41:00,61.5,51.7,29.84,SE,135,4.0,4.9,70,0.00,,,0.02,open2300-1.11,2013-09-19 06:41:00,
2013-09-19 00:51:00,61.5,51.7,29.84,ESE,112,0.0,4.0,70,0.00,,,0.02,open2300-1.11,2013-09-19 06:51:00,
2013-09-19 01:01:00,61.2,51.8,29.85,SSE,157,0.0,3.8,71,0.00,,,0.02,open2300-1.11,2013-09-19 07:01:00,
2013-09-19 01:11:00,61.0,51.2,29.84,SE,135,4.0,6.5,70,0.00,,,0.02,open2300-1.11,2013-09-19 07:11:00,
2013-09-19 01:21:00,61.0,51.6,29.84,ESE,112,0.0,4.0,71,0.00,,,0.02,open2300-1.11,2013-09-19 07:21:00,
2013-09-19 01:30:00,60.4,51.4,29.85,SSE,157,0.0,6.3,72,0.00,,,0.02,open2300-1.11,2013-09-19 07:30:00,
2013-09-19 01:41:00,60.3,51.3,29.85,ESE,112,0.0,0.0,72,0.00,,,0.02,open2300-1.11,2013-09-19 07:41:00,
2013-09-19 01:50:00,59.9,50.9,29.85,ESE,112,0.0,0.4,72,0.00,,,0.02,open2300-1.11,2013-09-19 07:50:00,
2013-09-19 02:01:00,60.1,51.1,29.85,SSE,157,0.0,2.0,72,0.00,,,0.02,open2300-1.11,2013-09-19 08:01:00,
2013-09-19 02:11:00,59.7,51.1,29.85,SSE,157,0.0,0.0,73,0.00,,,0.02,open2300-1.11,2013-09-19 08:11:00,
2013-09-19 02:20:00,59.7,50.7,29.86,SSE,157,0.0,0.0,72,0.00,,,0.02,open2300-1.11,2013-09-19 08:20:00,
2013-09-19 02:31:00,59.4,50.4,29.86,SSE,157,0.0,0.0,72,0.00,,,0.02,open2300-1.11,2013-09-19 08:31:00,
2013-09-19 02:41:00,58.8,50.2,29.86,SSE,157,0.0,0.0,73,0.00,,,0.02,open2300-1.11,2013-09-19 08:41:00,
2013-09-19 02:50:00,58.6,50.0,29.87,SSE,157,0.0,0.0,73,0.00,,,0.02,open2300-1.11,2013-09-19 08:50:00,
2013-09-19 03:02:00,57.9,49.6,29.87,SSE,157,0.0,0.0,74,0.00,,,0.02,open2300-1.11,2013-09-19 09:02:00,
2013-09-19 03:11:00,57.7,49.5,29.87,SSE,157,0.0,0.0,74,0.00,,,0.02,open2300-1.11,2013-09-19 09:11:00,
2013-09-19 03:21:00,57.7,49.8,29.87,SSE,157,0.0,0.0,75,0.00,,,0.02,open2300-1.11,2013-09-19 09:21:00,
2013-09-19 03:31:00,57.4,49.5,29.87,SSE,157,0.0,0.0,75,0.00,,,0.02,open2300-1.11,2013-09-19 09:31:00,
2013-09-19 03:41:00,57.4,49.8,29.87,SE,135,0.0,0.0,76,0.00,,,0.02,open2300-1.11,2013-09-19 09:41:00,
2013-09-19 03:51:00,57.7,49.8,29.87,SE,135,0.0,1.3,75,0.00,,,0.02,open2300-1.11,2013-09-19 09:51:00,
2013-09-19 04:01:00,57.6,49.6,29.87,ENE,67,0.0,4.9,75,0.00,,,0.02,open2300-1.11,2013-09-19 10:01:00,
2013-09-19 04:11:00,57.9,50.4,29.87,East,90,6.9,6.9,76,0.00,,,0.02,open2300-1.11,2013-09-19 10:11:00,
2013-09-19 04:20:00,58.3,50.4,29.87,ENE,67,4.7,6.9,75,0.00,,,0.02,open2300-1.11,2013-09-19 10:20:00,
2013-09-19 04:31:00,58.3,50.0,29.87,ESE,112,0.0,5.8,74,0.00,,,0.02,open2300-1.11,2013-09-19 10:31:00,
2013-09-19 04:41:00,57.9,50.0,29.87,SE,135,2.5,2.5,75,0.00,,,0.02,open2300-1.11,2013-09-19 10:41:00,
2013-09-19 04:50:00,57.9,50.0,29.87,ESE,112,0.0,2.5,75,0.00,,,0.02,open2300-1.11,2013-09-19 10:50:00,
2013-09-19 05:01:00,57.6,50.0,29.87,ENE,67,2.2,7.4,76,0.00,,,0.02,open2300-1.11,2013-09-19 11:01:00,
2013-09-19 05:10:00,57.4,49.8,29.87,ENE,67,3.4,3.4,76,0.00,,,0.02,open2300-1.11,2013-09-19 11:10:00,
2013-09-19 05:21:00,57.2,49.6,29.87,East,90,0.0,6.5,76,0.00,,,0.02,open2300-1.11,2013-09-19 11:21:00,
2013-09-19 05:31:00,57.0,49.5,29.87,SE,135,0.0,0.0,76,0.00,,,0.02,open2300-1.11,2013-09-19 11:31:00,
2013-09-19 05:41:00,56.8,49.3,29.88,SSE,157,0.0,3.1,76,0.00,,,0.02,open2300-1.11,2013-09-19 11:41:00,
2013-09-19 05:51:00,56.5,48.9,29.88,ESE,112,3.8,6.0,76,0.00,,,0.02,open2300-1.11,2013-09-19 11:51:00,
2013-09-19 06:01:00,56.1,48.9,29.88,SE,135,0.0,0.9,77,0.00,,,0.02,open2300-1.11,2013-09-19 12:01:00,
2013-09-19 06:11:00,55.9,48.8,29.88,ESE,112,0.0,0.0,77,0.00,,,0.02,open2300-1.11,2013-09-19 12:11:00,
2013-09-19 06:20:00,55.9,48.8,29.89,ENE,67,2.5,4.5,77,0.00,,,0.02,open2300-1.11,2013-09-19 12:20:00,
2013-09-19 06:31:00,55.6,48.4,29.89,ENE,67,0.0,3.6,77,0.00,,,0.02,open2300-1.11,2013-09-19 12:31:00,
2013-09-19 06:41:00,55.2,48.1,29.89,ENE,67,0.0,0.0,77,0.00,,,0.02,open2300-1.11,2013-09-19 12:41:00,
2013-09-19 06:50:00,55.2,48.1,29.90,ENE,67,0.0,0.0,77,0.00,,,0.02,open2300-1.11,2013-09-19 12:50:00,
2013-09-19 07:01:00,55.2,48.1,29.90,ENE,67,0.0,2.0,77,0.00,,,0.02,open2300-1.11,2013-09-19 13:01:00,
2013-09-19 07:10:00,55.0,48.2,29.91,ENE,67,4.5,5.8,78,0.00,,,0.02,open2300-1.11,2013-09-19 13:10:00,
2013-09-19 07:20:00,55.4,48.6,29.91,East,90,4.5,5.4,78,0.00,,,0.02,open2300-1.11,2013-09-19 13:20:00,
2013-09-19 07:31:00,55.2,48.4,29.92,East,90,0.0,4.5,78,0.00,,,0.02,open2300-1.11,2013-09-19 13:31:00,
2013-09-19 07:41:00,55.0,48.6,29.92,East,90,0.0,0.0,79,0.00,,,0.02,open2300-1.11,2013-09-19 13:41:00,
2013-09-19 07:51:00,55.0,48.6,29.92,East,90,3.4,6.3,79,0.00,,,0.02,open2300-1.11,2013-09-19 13:51:00,
2013-09-19 08:01:00,55.2,48.4,29.93,ENE,67,1.3,6.5,78,0.00,,,0.02,open2300-1.11,2013-09-19 14:01:00,
2013-09-19 08:11:00,56.1,49.3,29.93,ENE,67,0.0,1.3,78,0.00,,,0.02,open2300-1.11,2013-09-19 14:11:00,
2013-09-19 08:20:00,57.4,50.2,29.93,ENE,67,1.6,5.6,77,0.00,,,0.02,open2300-1.11,2013-09-19 14:20:00,
2013-09-19 08:31:00,58.3,50.4,29.93,East,90,0.0,6.5,75,0.00,,,0.02,open2300-1.11,2013-09-19 14:31:00,
2013-09-19 08:41:00,58.8,50.9,29.93,SE,135,0.0,2.0,75,0.00,,,0.02,open2300-1.11,2013-09-19 14:41:00,
2013-09-19 08:51:00,59.7,51.4,29.94,SE,135,0.0,0.9,74,0.00,,,0.02,open2300-1.11,2013-09-19 14:51:00,
2013-09-19 09:01:00,60.4,51.8,29.94,SE,135,0.0,6.0,73,0.00,,,0.02,open2300-1.11,2013-09-19 15:01:00,
2013-09-19 09:10:00,61.3,51.9,29.94,SE,135,0.0,5.6,71,0.00,,,0.02,open2300-1.11,2013-09-19 15:10:00,
2013-09-19 09:21:00,62.2,52.4,29.94,SE,135,0.0,0.0,70,0.00,,,0.02,open2300-1.11,2013-09-19 15:21:00,
2013-09-19 09:31:00,63.3,53.0,29.94,SE,135,0.0,0.0,69,0.00,,,0.02,open2300-1.11,2013-09-19 15:31:00,
2013-09-19 09:41:00,64.2,53.5,29.94,SE,135,0.0,2.0,68,0.00,,,0.02,open2300-1.11,2013-09-19 15:41:00,
2013-09-19 09:51:00,65.1,53.9,29.95,SE,135,0.0,0.0,67,0.00,,,0.02,open2300-1.11,2013-09-19 15:51:00,
2013-09-19 10:01:00,66.0,53.9,29.94,SE,135,0.0,1.1,65,0.00,,,0.02,open2300-1.11,2013-09-19 16:01:00,
2013-09-19 10:11:00,67.3,54.6,29.94,SE,135,0.0,1.3,64,0.00,,,0.02,open2300-1.11,2013-09-19 16:11:00,
2013-09-19 10:21:00,68.5,54.5,29.94,SE,135,0.0,0.0,61,0.00,,,0.02,open2300-1.11,2013-09-19 16:21:00,
2013-09-19 10:31:00,69.6,55.2,29.94,SE,135,0.0,0.0,60,0.00,,,0.02,open2300-1.11,2013-09-19 16:31:00,
2013-09-19 10:41:00,70.5,55.0,29.94,WNW,292,0.0,2.5,58,0.00,,,0.02,open2300-1.11,2013-09-19 16:41:00,
2013-09-19 10:51:00,71.4,54.8,29.94,WSW,247,2.2,2.7,56,0.00,,,0.02,open2300-1.11,2013-09-19 16:51:00,
2013-09-19 11:01:00,72.1,55.0,29.94,West,270,0.0,4.0,55,0.00,,,0.02,open2300-1.11,2013-09-19 17:01:00,
2013-09-19 11:11:00,72.7,54.5,29.94,West,270,0.0,1.3,53,0.00,,,0.02,open2300-1.11,2013-09-19 17:11:00,
2013-09-19 11:21:00,74.1,53.1,29.94,WNW,292,0.2,3.4,48,0.00,,,0.02,open2300-1.11,2013-09-19 17:21:00,
2013-09-19 11:31:00,75.0,52.8,29.94,WNW,292,1.1,5.4,46,0.00,,,0.02,open2300-1.11,2013-09-19 17:31:00,
2013-09-19 11:41:00,76.3,52.1,29.94,WSW,247,0.0,4.2,43,0.00,,,0.02,open2300-1.11,2013-09-19 17:41:00,
2013-09-19 11:51:00,77.4,51.8,29.94,WNW,292,2.2,5.8,41,0.00,,,0.02,open2300-1.11,2013-09-19 17:51:00,
2013-09-19 12:01:00,77.7,50.8,29.94,WNW,292,4.7,4.7,39,0.00,,,0.02,open2300-1.11,2013-09-19 18:01:00,
2013-09-19 12:11:00,78.4,49.9,29.93,NW,315,4.9,4.9,37,0.00,,,0.02,open2300-1.11,2013-09-19 18:11:00,
2013-09-19 12:21:00,78.8,47.9,29.93,WSW,247,4.7,4.9,34,0.00,,,0.02,open2300-1.11,2013-09-19 18:21:00,
2013-09-19 12:31:00,79.0,46.5,29.93,NNW,337,0.0,4.7,32,0.00,,,0.02,open2300-1.11,2013-09-19 18:31:00,
2013-09-19 12:41:00,79.7,47.1,29.93,WSW,247,0.0,4.0,32,0.00,,,0.02,open2300-1.11,2013-09-19 18:41:00,
2013-09-19 12:51:00,80.2,49.2,29.93,WNW,292,4.7,5.1,34,0.00,,,0.02,open2300-1.11,2013-09-19 18:51:00,
2013-09-19 13:01:00,80.4,47.8,29.92,WNW,292,0.0,4.7,32,0.00,,,0.02,open2300-1.11,2013-09-19 19:01:00,
2013-09-19 13:11:00,81.0,49.8,29.92,SW,225,2.0,5.4,34,0.00,,,0.02,open2300-1.11,2013-09-19 19:11:00,
2013-09-19 13:20:00,81.3,48.5,29.92,SW,225,0.0,2.7,32,0.00,,,0.02,open2300-1.11,2013-09-19 19:20:00,
2013-09-19 13:31:00,81.5,49.5,29.92,WSW,247,0.0,5.4,33,0.00,,,0.02,open2300-1.11,2013-09-19 19:31:00,
2013-09-19 13:41:00,81.9,49.0,29.91,SW,225,0.0,4.7,32,0.00,,,0.02,open2300-1.11,2013-09-19 19:41:00,
2013-09-19 13:51:00,82.2,48.5,29.92,WSW,247,0.0,8.5,31,0.00,,,0.02,open2300-1.11,2013-09-19 19:51:00,
2013-09-19 14:00:00,82.8,48.2,29.92,West,270,0.9,6.3,30,0.00,,,0.02,open2300-1.11,2013-09-19 20:00:00,
2013-09-19 14:11:00,83.3,47.6,29.91,WNW,292,3.1,5.6,29,0.00,,,0.02,open2300-1.11,2013-09-19 20:11:00,
2013-09-19 14:21:00,83.8,47.0,29.92,West,270,0.0,3.6,28,0.00,,,0.02,open2300-1.11,2013-09-19 20:21:00,
2013-09-19 14:30:00,84.0,46.1,29.91,WNW,292,6.7,7.4,27,0.00,,,0.02,open2300-1.11,2013-09-19 20:30:00,
2013-09-19 14:40:00,84.7,45.7,29.91,WSW,247,1.6,6.7,26,0.00,,,0.02,open2300-1.11,2013-09-19 20:40:00,
2013-09-19 14:51:00,84.9,45.8,29.91,WSW,247,0.0,5.4,26,0.00,,,0.02,open2300-1.11,2013-09-19 20:51:00,
2013-09-19 15:01:00,84.9,44.8,29.91,SSW,202,4.7,4.7,25,0.00,,,0.02,open2300-1.11,2013-09-19 21:01:00,
2013-09-19 15:10:00,85.1,44.9,29.91,West,270,2.0,4.7,25,0.00,,,0.02,open2300-1.11,2013-09-19 21:10:00,
2013-09-19 15:21:00,86.2,46.9,29.91,SW,225,3.1,6.3,26,0.00,,,0.02,open2300-1.11,2013-09-19 21:21:00,
2013-09-19 15:31:00,86.2,45.8,29.91,WNW,292,10.7,10.7,25,0.00,,,0.02,open2300-1.11,2013-09-19 21:31:00,
2013-09-19 15:41:00,86.2,45.8,29.90,WNW,292,0.0,10.7,25,0.00,,,0.02,open2300-1.11,2013-09-19 21:41:00,
2013-09-19 15:51:00,86.7,44.1,29.90,SW,225,2.2,2.5,23,0.00,,,0.02,open2300-1.11,2013-09-19 21:51:00,
2013-09-19 16:01:00,86.9,44.3,29.90,SW,225,1.8,5.4,23,0.00,,,0.02,open2300-1.11,2013-09-19 22:01:00,
2013-09-19 16:11:00,86.7,43.1,29.90,WNW,292,3.4,8.9,22,0.00,,,0.02,open2300-1.11,2013-09-19 22:11:00,
2013-09-19 16:20:00,87.6,43.9,29.90,WSW,247,0.0,4.2,22,0.00,,,0.02,open2300-1.11,2013-09-19 22:20:00,
2013-09-19 16:30:00,88.2,43.2,29.89,WSW,247,0.0,5.4,21,0.00,,,0.02,open2300-1.11,2013-09-19 22:30:00,
2013-09-19 16:41:00,88.2,43.2,29.89,West,270,0.0,6.9,21,0.00,,,0.02,open2300-1.11,2013-09-19 22:41:00,
2013-09-19 16:50:00,88.3,43.4,29.89,South,180,87.5,87.5,21,0.00,,,0.02,open2300-1.11,2013-09-19 22:50:00,
2013-09-19 17:00:00,89.2,44.1,29.89,SW,225,3.1,87.5,21,0.00,,,0.02,open2300-1.11,2013-09-19 23:00:00,
2013-09-19 17:10:00,88.7,42.6,29.89,West,270,2.9,3.1,20,0.00,,,0.02,open2300-1.11,2013-09-19 23:10:00,
2013-09-19 17:21:00,88.2,43.2,29.89,NW,315,5.6,5.6,21,0.00,,,0.02,open2300-1.11,2013-09-19 23:21:00,
2013-09-19 17:31:00,88.2,43.2,29.89,WNW,292,0.0,5.6,21,0.00,,,0.02,open2300-1.11,2013-09-19 23:31:00,
2013-09-19 17:40:00,88.3,43.4,29.89,West,270,0.0,0.0,21,0.00,,,0.02,open2300-1.11,2013-09-19 23:40:00,
2013-09-19 17:51:00,89.1,44.0,29.89,SW,225,0.0,3.1,21,0.00,,,0.02,open2300-1.11,2013-09-19 23:51:00,
2013-09-19 18:00:00,88.9,42.8,29.89,WSW,247,0.0,3.6,20,0.00,,,0.02,open2300-1.11,2013-09-20 00:00:00,
2013-09-19 18:11:00,89.1,44.0,29.89,West,270,0.0,1.6,21,0.00,,,0.02,open2300-1.11,2013-09-20 00:11:00,
2013-09-19 18:21:00,88.2,43.2,29.89,WNW,292,0.0,4.9,21,0.00,,,0.02,open2300-1.11,2013-09-20 00:21:00,
2013-09-19 18:30:00,87.6,43.9,29.89,WNW,292,0.0,0.0,22,0.00,,,0.02,open2300-1.11,2013-09-20 00:30:00,
2013-09-19 18:41:00,85.6,43.2,29.89,WNW,292,0.0,0.0,23,0.00,,,0.02,open2300-1.11,2013-09-20 00:41:00,
2013-09-19 18:51:00,82.9,44.1,29.89,WNW,292,0.0,0.0,26,0.00,,,0.02,open2300-1.11,2013-09-20 00:51:00,
2013-09-19 19:00:00,81.3,45.9,29.89,WNW,292,0.0,0.0,29,0.00,,,0.02,open2300-1.11,2013-09-20 01:00:00,
2013-09-19 19:11:00,79.0,45.7,29.89,WNW,292,0.0,0.0,31,0.00,,,0.02,open2300-1.11,2013-09-20 01:11:00,
2013-09-19 19:21:00,76.1,45.5,29.89,WNW,292,0.0,0.0,34,0.00,,,0.02,open2300-1.11,2013-09-20 01:21:00,
2013-09-19 19:30:00,74.1,43.8,29.89,WNW,292,0.0,0.0,34,0.00,,,0.02,open2300-1.11,2013-09-20 01:30:00,
2013-09-19 19:40:00,71.4,42.2,29.90,WNW,292,0.0,0.0,35,0.00,,,0.02,open2300-1.11,2013-09-20 01:40:00,
2013-09-19 19:51:00,70.0,42.4,29.90,WNW,292,0.0,0.0,37,0.00,,,0.02,open2300-1.11,2013-09-20 01:51:00,
2013-09-19 20:01:00,68.9,43.6,29.90,WNW,292,0.0,0.0,40,0.00,,,0.00,open2300-1.11,2013-09-20 02:01:00,
2013-09-19 20:11:00,67.6,43.1,29.91,WNW,292,0.0,0.0,41,0.00,,,0.00,open2300-1.11,2013-09-20 02:11:00,
2013-09-19 20:21:00,66.0,43.4,29.91,SW,225,0.0,0.0,44,0.00,,,0.00,open2300-1.11,2013-09-20 02:21:00,
2013-09-19 20:31:00,64.2,42.8,29.92,SW,225,0.0,0.0,46,0.00,,,0.00,open2300-1.11,2013-09-20 02:31:00,
2013-09-19 20:40:00,63.1,41.3,29.92,SW,225,0.0,0.0,45,0.00,,,0.00,open2300-1.11,2013-09-20 02:40:00,
2013-09-19 20:51:00,62.4,40.7,29.92,SW,225,0.0,0.0,45,0.00,,,0.00,open2300-1.11,2013-09-20 02:51:00,
2013-09-19 21:01:00,61.9,41.3,29.92,SW,225,0.0,0.0,47,0.00,,,0.00,open2300-1.11,2013-09-20 03:01:00,
2013-09-19 21:11:00,61.2,41.2,29.93,SW,225,0.0,0.0,48,0.00,,,0.00,open2300-1.11,2013-09-20 03:11:00,
2013-09-19 21:21:00,60.4,41.8,29.93,SW,225,0.0,0.0,50,0.00,,,0.00,open2300-1.11,2013-09-20 03:21:00,
2013-09-19 21:31:00,59.7,41.1,29.93,SW,225,0.0,0.0,50,0.00,,,0.00,open2300-1.11,2013-09-20 03:31:00,
2013-09-19 21:41:00,59.5,40.4,29.93,East,90,0.0,0.0,49,0.00,,,0.00,open2300-1.11,2013-09-20 03:41:00,
2013-09-19 21:51:00,59.5,39.2,29.93,South,180,0.0,3.4,47,0.00,,,0.00,open2300-1.11,2013-09-20 03:51:00,
2013-09-19 22:01:00,59.4,39.1,29.94,NNE,22,4.2,4.2,47,0.00,,,0.00,open2300-1.11,2013-09-20 04:01:00,
2013-09-19 22:11:00,59.4,38.5,29.94,NE,45,2.0,4.2,46,0.00,,,0.00,open2300-1.11,2013-09-20 04:11:00,
2013-09-19 22:21:00,60.1,37.4,29.94,East,90,0.0,2.0,43,0.00,,,0.00,open2300-1.11,2013-09-20 04:21:00,
2013-09-19 22:31:00,61.0,37.6,29.94,SSE,157,4.9,4.9,42,0.00,,,0.00,open2300-1.11,2013-09-20 04:31:00,
2013-09-19 22:41:00,61.2,37.8,29.95,SSE,157,0.0,4.9,42,0.00,,,0.00,open2300-1.11,2013-09-20 04:41:00,
2013-09-19 22:51:00,60.6,37.9,29.95,North,0,0.0,3.1,43,0.00,,,0.00,open2300-1.11,2013-09-20 04:51:00,
2013-09-19 23:01:00,60.4,37.7,29.95,East,90,0.0,0.0,43,0.00,,,0.00,open2300-1.11,2013-09-20 05:01:00,
2013-09-19 23:11:00,60.1,37.4,29.95,ENE,67,0.0,6.7,43,0.00,,,0.00,open2300-1.11,2013-09-20 05:11:00,
2013-09-19 23:20:00,59.7,37.7,29.95,WNW,292,0.0,0.0,44,0.00,,,0.00,open2300-1.11,2013-09-20 05:20:00,
2013-09-19 23:31:00,58.8,37.4,29.95,West,270,0.0,0.9,45,0.00,,,0.00,open2300-1.11,2013-09-20 05:31:00,
2013-09-19 23:40:00,58.6,37.3,29.95,ENE,67,0.0,0.0,45,0.00,,,0.00,open2300-1.11,2013-09-20 05:40:00,
2013-09-19 23:50:00,58.3,37.5,29.94,ESE,112,3.1,3.1,46,0.00,,,0.00,open2300-1.11,2013-09-20 05:50:00,